TimeEST,TemperatureF,Dew PointF,Humidity,Sea Level PressureIn,VisibilityMPH,Wind Direction,Wind SpeedMPH,Gust SpeedMPH,PrecipitationIn,Events,Conditions,WindDirDegrees,DateUTC
12:51 AM,10.0,-6.9,46,30.84,10.0,WNW,4.6,-,N/A,,Clear,290,2013-01-23 05:51:00
1:51 AM,9.1,-8.0,46,30.84,10.0,West,4.6,-,N/A,,Clear,280,2013-01-23 06:51:00
2:51 AM,9.1,-8.0,46,30.85,10.0,West,8.1,-,N/A,,Clear,260,2013-01-23 07:51:00
3:51 AM,8.1,-4.9,56,30.86,10.0,Variable,4.6,-,N/A,,Clear,0,2013-01-23 08:51:00
4:51 AM,8.1,-13.0,38,30.87,10.0,Variable,6.9,-,N/A,,Clear,0,2013-01-23 09:51:00
5:51 AM,7.2,-13.9,38,30.88,10.0,WNW,8.1,-,N/A,,Clear,290,2013-01-23 10:51:00
6:51 AM,7.2,-15.0,36,30.90,10.0,West,10.4,-,N/A,,Clear,280,2013-01-23 11:51:00
7:51 AM,6.1,-11.9,44,30.91,10.0,West,5.8,-,N/A,,Clear,270,2013-01-23 12:51:00
8:51 AM,7.2,-13.9,38,30.92,10.0,NW,9.2,-,N/A,,Clear,310,2013-01-23 13:51:00
9:51 AM,9.1,-15.0,33,30.92,10.0,WNW,16.1,24.2,N/A,,Clear,290,2013-01-23 14:51:00
10:51 AM,11.1,-13.0,33,30.90,10.0,NW,16.1,28.8,N/A,,Clear,320,2013-01-23 15:51:00
11:51 AM,12.0,-15.0,29,30.88,10.0,WNW,18.4,29.9,N/A,,Clear,300,2013-01-23 16:51:00
12:51 PM,13.1,-15.9,26,30.86,10.0,West,12.7,19.6,N/A,,Clear,280,2013-01-23 17:51:00
1:51 PM,13.1,-15.9,26,30.85,10.0,NNW,15.0,19.6,N/A,,Clear,330,2013-01-23 18:51:00
4:51 PM,11.1,-13.9,32,30.88,10.0,NNW,11.5,-,N/A,,Clear,330,2013-01-23 21:51:00
5:51 PM,9.1,-15.9,31,30.90,10.0,North,4.6,-,N/A,,Clear,350,2013-01-23 22:51:00
6:51 PM,7.2,-13.0,39,30.92,10.0,Calm,Calm,-,N/A,,Clear,0,2013-01-23 23:51:00
7:51 PM,6.1,-13.9,40,30.93,10.0,WNW,4.6,-,N/A,,Clear,300,2013-01-24 00:51:00
8:51 PM,4.1,-13.9,43,30.93,10.0,Calm,Calm,-,N/A,,Clear,0,2013-01-24 01:51:00
9:51 PM,4.1,-13.9,43,30.93,10.0,West,3.5,-,N/A,,Clear,280,2013-01-24 02:51:00
10:51 PM,3.0,-11.9,50,30.93,10.0,WNW,4.6,-,N/A,,Clear,300,2013-01-24 03:51:00
11:51 PM,3.0,-15.0,43,30.92,10.0,WNW,9.2,-,N/A,,Clear,290,2013-01-24 04:51:00